Flight Track Log - Related Links

Times and Time Zones

All times are in EDT time to prevent confusion due to time zone crossing. See the SKW6492 flight status page for this flight to view local times or setup timezone preferences in your user account.


Time Position Orientation Groundspeed Altitude Reporting Facility
EDT Latitude Longitude Course Direction KTS MPH feet Rate Location/Type
Thu 09:41:27 PM 39.9333 -104.6833 346° North 205 236 6,600  Level Denver TRACON
Thu 09:42:21 PM 39.9833 -104.6667 14° North 252 290 8,000 1,526 Climbing Denver TRACON
Thu 09:43:00 PM 40.1593 -104.7695 347° North  Level FlightAware Approximate
Thu 09:43:21 PM 40.0667 -104.6667 360° North 295 339 9,500  Level Denver TRACON
Thu 09:44:00 PM 40.2633 -104.8006 347° North  Level FlightAware Approximate
Thu 09:44:21 PM 40.1500 -104.6833 351° North 315 362 11,600  Level Denver TRACON
Thu 09:45:00 PM 40.3669 -104.8334 346° North  Level FlightAware Approximate
Thu 09:45:15 PM 40.2333 -104.7000 351° North 324 373 13,200  Level Denver TRACON
Thu 09:46:00 PM 40.4702 -104.8678 346° North  Level FlightAware Approximate
Thu 09:46:13 PM 40.3158 -104.7269 346° North 328 377 15,100  Level Denver Center
Thu 09:47:14 PM 40.4064 -104.7503 349° North 331 381 17,200 1,721 Climbing Denver Center
Thu 09:48:15 PM 40.4944 -104.7756 348° North 327 376 18,600 1,475 Climbing Denver Center
Thu 09:49:16 PM 40.5867 -104.7983 349° North 337 388 20,200 1,180 Climbing Denver Center
Thu 09:50:17 PM 40.6844 -104.8286 347° North 340 391 21,000 885 Climbing Denver Center
Thu 09:51:18 PM 40.7769 -104.8503 350° North 339 390 22,000 934 Climbing Denver Center
Thu 09:52:19 PM 40.8719 -104.8925 341° North 352 405 22,900 787 Climbing Denver Center
Thu 09:53:20 PM 40.9689 -104.9411 339° North 366 421 23,600 836 Climbing Denver Center
Thu 09:54:21 PM 41.0667 -104.9900 339° North 374 430 24,600 1,082 Climbing Denver Center
Thu 09:55:22 PM 41.1767 -105.0442 340° North 377 434 25,800 1,033 Climbing Denver Center
Thu 09:56:23 PM 41.2694 -105.0897 340° North 372 428 26,700 787 Climbing Denver Center
Thu 09:57:24 PM 41.3622 -105.1361 339° North 372 428 27,400 689 Climbing Denver Center
Thu 09:58:25 PM 41.4731 -105.1911 340° North 377 434 28,100 590 Climbing Denver Center
Thu 09:59:26 PM 41.5678 -105.2411 338° Northwest 380 437 28,600 492 Climbing Denver Center
Thu 10:00:27 PM 41.6494 -105.3317 320° Northwest 392 451 29,100 492 Climbing Denver Center
Thu 10:01:28 PM 41.7444 -105.4322 322° Northwest 390 449 29,600 443 Climbing Denver Center
Thu 10:02:29 PM 41.8261 -105.5206 321° Northwest 392 451 30,000 197 Climbing Denver Center
Thu 10:03:30 PM 41.9100 -105.6119 321° Northwest 400 460 30,000  Level Denver Center
Thu 10:04:31 PM 42.0100 -105.7197 321° Northwest 408 470 30,000  Level Denver Center
Thu 10:05:32 PM 42.0958 -105.8144 321° Northwest 416 479 30,000  Level Denver Center
Thu 10:06:33 PM 42.1778 -105.9067 320° Northwest 407 468 30,000  Level Denver Center
Thu 10:07:34 PM 42.2775 -106.0161 321° Northwest 412 474 30,000  Level Denver Center
Thu 10:08:35 PM 42.3628 -106.1108 321° Northwest 413 475 30,000  Level Denver Center
Thu 10:09:36 PM 42.4483 -106.2067 320° Northwest 416 479 30,000  Level Denver Center
Thu 10:10:37 PM 42.5472 -106.3178 320° Northwest 413 475 30,000  Level Denver Center
Thu 10:11:38 PM 42.6314 -106.4128 320° Northwest 411 473 30,000  Level Denver Center
Thu 10:12:39 PM 42.7153 -106.5089 320° Northwest 411 473 30,000  Level Denver Center
Thu 10:13:40 PM 42.7903 -106.6508 306° West 416 479 30,000  Level Denver Center
Thu 10:14:41 PM 42.8539 -106.7736 305° West 414 476 30,000  Level Denver Center
Thu 10:15:42 PM 42.9231 -106.9222 302° West 414 476 30,000  Level Salt Lake Center
Thu 10:16:43 PM 42.9775 -107.0264 306° West 407 468 30,000  Level Salt Lake Center
Thu 10:17:43 PM 43.0475 -107.1672 304° West 409 471 30,000  Level Denver Center
Thu 10:18:44 PM 43.1067 -107.2850 305° West 406 467 30,000  Level Denver Center
Thu 10:19:45 PM 43.1969 -107.4203 312° West 411 473 30,000  Level Denver Center
Thu 10:20:46 PM 43.2864 -107.5147 322° Northwest 409 471 30,000 -98 Level Denver Center
Thu 10:21:47 PM 43.3756 -107.6114 322° Northwest 408 470 29,800 -1,230 Descending Salt Lake Center
Thu 10:22:48 PM 43.4703 -107.7128 322° Northwest 429 494 27,500 -1,967 Descending Salt Lake Center
Thu 10:23:49 PM 43.5681 -107.8153 323° Northwest 440 506 25,800 -1,672 Descending Salt Lake Center
Thu 10:24:50 PM 43.6633 -107.9181 322° Northwest 436 502 24,100 -1,672 Descending Salt Lake Center
Thu 10:25:51 PM 43.7572 -108.0197 322° Northwest 430 495 22,400 -1,672 Descending Salt Lake Center
Thu 10:26:52 PM 43.8489 -108.1197 322° Northwest 422 486 20,700 -1,770 Descending Salt Lake Center
Thu 10:27:53 PM 43.9358 -108.2131 322° Northwest 398 458 18,800 -2,066 Descending Salt Lake Center
Thu 10:28:54 PM 44.0156 -108.3017 321° Northwest 382 440 16,500 -2,213 Descending Salt Lake Center
Thu 10:29:55 PM 44.0917 -108.3844 322° Northwest 366 421 14,300 -2,164 Descending Salt Lake Center
Thu 10:30:56 PM 44.1647 -108.4636 322° Northwest 352 405 12,100 -1,140 Descending Salt Lake Center
Thu 10:31:56 PM 44.2322 -108.5203 329° Northwest 321 369 12,000 -545 Descending Salt Lake Center
Thu 10:32:57 PM 44.3044 -108.5519 343° North 287 330 11,000 -1,131 Descending Salt Lake Center
Thu 10:33:58 PM 44.3875 -108.5883 343° North 270 311 9,700 -984 Descending Salt Lake Center
Thu 10:34:59 PM 44.4536 -108.6167 343° North 261 300 9,000 -344 Descending Salt Lake Center
Thu 10:36:00 PM 44.5164 -108.6433 343° North 249 287 9,000  Level Salt Lake Center
Thu 10:37:01 PM 44.5756 -108.6719 341° North 238 274 9,000 -492 Level Salt Lake Center
Thu 10:38:02 PM 44.6236 -108.7233 323° Northwest 226 260 8,000 -541 Descending Salt Lake Center
Thu 10:39:03 PM 44.6508 -108.7806 304° West 219 252 7,900 -246 Descending Salt Lake Center
Thu 10:40:04 PM 44.6214 -108.8478 238° Southwest 210 242 7,500 -393 Descending Salt Lake Center

Login

Don't have an account? Register now (free) for customized features, flight alerts, and more!